createdAt,value
2023-05-23T00:00:47.764Z,101518.36
2023-05-23T00:01:58.826Z,101521.36
2023-05-23T00:03:01.702Z,101515.06
2023-05-23T00:04:04.722Z,101515.60
2023-05-23T00:05:07.657Z,101516.27
2023-05-23T00:06:10.360Z,101515.27
2023-05-23T00:07:13.081Z,101516.05
2023-05-23T00:08:16.365Z,101515.39
2023-05-23T00:09:19.389Z,101512.55
2023-05-23T00:10:22.394Z,101513.17
2023-05-23T00:11:27.231Z,101510.20
2023-05-23T00:12:29.983Z,101511.56
2023-05-23T00:13:35.903Z,101512.23
2023-05-23T00:14:40.332Z,101508.87
2023-05-23T00:15:43.625Z,101509.45
2023-05-23T00:16:46.852Z,101510.32
2023-05-23T00:17:49.627Z,101507.10
2023-05-23T00:18:53.691Z,101508.19
2023-05-23T00:19:56.492Z,101505.87
2023-05-23T00:21:00.093Z,101508.22
2023-05-23T00:22:03.357Z,101504.70
2023-05-23T00:23:06.332Z,101506.77
2023-05-23T00:24:10.544Z,101506.81
2023-05-23T00:25:13.692Z,101504.13
2023-05-23T00:26:16.447Z,101504.60
2023-05-23T00:27:20.675Z,101500.26
2023-05-23T00:28:23.352Z,101501.50
2023-05-23T00:29:26.068Z,101502.45
2023-05-23T00:30:30.371Z,101501.65
2023-05-23T00:31:33.280Z,101498.84
2023-05-23T00:32:36.268Z,101496.81
2023-05-23T00:33:39.066Z,101498.33
2023-05-23T00:34:41.794Z,101494.31
2023-05-23T00:35:44.601Z,101491.45
2023-05-23T00:36:48.151Z,101492.31
2023-05-23T00:37:52.109Z,101492.32
2023-05-23T00:38:55.805Z,101492.23
2023-05-23T00:39:58.587Z,101490.45
2023-05-23T00:41:02.088Z,101489.72
2023-05-23T00:42:05.557Z,101489.11
2023-05-23T00:43:11.077Z,101485.17
2023-05-23T00:44:13.921Z,101482.61
2023-05-23T00:45:17.288Z,101481.41
2023-05-23T00:46:20.451Z,101482.02
2023-05-23T00:47:23.545Z,101482.31
2023-05-23T00:48:26.791Z,101476.84
2023-05-23T00:49:30.250Z,101478.36
2023-05-23T00:50:33.682Z,101478.19
2023-05-23T00:51:36.571Z,101478.23
2023-05-23T00:52:39.512Z,101477.34
2023-05-23T00:53:43.341Z,101479.86
2023-05-23T00:54:46.123Z,101478.21
2023-05-23T00:55:48.938Z,101479.23
2023-05-23T00:56:51.806Z,101478.33
2023-05-23T00:57:57.254Z,101478.67
2023-05-23T00:59:01.064Z,101478.23
2023-05-23T01:00:04.478Z,101479.67
2023-05-23T01:01:08.010Z,101478.84
2023-05-23T01:02:12.306Z,101478.59
2023-05-23T01:03:18.572Z,101476.72
2023-05-23T01:04:26.596Z,101480.41
2023-05-23T01:05:30.519Z,101477.72
2023-05-23T01:06:33.795Z,101473.45
2023-05-23T01:07:36.603Z,101473.98
2023-05-23T01:08:39.538Z,101472.98
2023-05-23T01:09:42.266Z,101471.36
2023-05-23T01:10:44.987Z,101473.48
2023-05-23T01:11:57.066Z,101467.48
2023-05-23T01:13:05.898Z,101468.60
2023-05-23T01:14:14.910Z,101468.52
2023-05-23T01:15:19.251Z,101465.49
2023-05-23T01:16:30.130Z,101465.72
2023-05-23T01:17:45.228Z,101462.91
2023-05-23T01:18:54.969Z,101461.80
2023-05-23T01:20:19.082Z,101461.52
2023-05-23T01:21:24.014Z,101460.90
2023-05-23T01:22:39.527Z,101463.70
2023-05-23T01:24:01.021Z,101461.30
2023-05-23T01:25:11.079Z,101463.71
2023-05-23T01:26:19.807Z,101461.08
2023-05-23T01:27:24.300Z,101461.95
2023-05-23T01:28:32.486Z,101459.38
2023-05-23T01:29:38.808Z,101458.23
2023-05-23T01:32:11.756Z,101452.88
2023-05-23T01:33:17.948Z,101453.98
2023-05-23T01:34:21.195Z,101454.51
2023-05-23T01:35:28.028Z,101453.55
2023-05-23T01:36:35.182Z,101456.82
2023-05-23T01:37:38.159Z,101454.74
2023-05-23T01:38:41.016Z,101454.95
2023-05-23T01:39:43.913Z,101453.74
2023-05-23T01:40:46.675Z,101450.16
2023-05-23T01:41:50.531Z,101453.63
2023-05-23T01:42:55.233Z,101451.44
2023-05-23T01:43:58.129Z,101450.98
2023-05-23T01:45:02.361Z,101450.80
2023-05-23T01:46:07.848Z,101447.02
2023-05-23T01:47:11.351Z,101451.94
2023-05-23T01:48:16.142Z,101450.37
2023-05-23T01:49:20.551Z,101453.13
2023-05-23T01:50:24.568Z,101454.45
2023-05-23T01:51:28.516Z,101450.19
2023-05-23T01:52:32.435Z,101449.70
2023-05-23T01:53:37.231Z,101449.16
2023-05-23T01:54:42.648Z,101448.84
2023-05-23T01:55:46.713Z,101445.30
2023-05-23T01:56:50.921Z,101443.73
2023-05-23T01:57:55.779Z,101445.79
2023-05-23T01:58:58.593Z,101444.50
2023-05-23T02:00:01.455Z,101443.30
2023-05-23T02:02:49.823Z,101446.95
2023-05-23T02:05:13.175Z,101444.14
2023-05-23T02:06:15.937Z,101445.92
2023-05-23T02:07:23.109Z,101448.15
2023-05-23T02:08:26.092Z,101444.27
2023-05-23T02:09:28.898Z,101442.93
2023-05-23T02:10:32.169Z,101445.25
2023-05-23T02:11:36.648Z,101443.96
2023-05-23T02:12:39.429Z,101441.77
2023-05-23T02:13:42.225Z,101441.91
2023-05-23T02:14:45.049Z,101442.45
2023-05-23T02:15:47.895Z,101441.58
2023-05-23T02:16:53.038Z,101439.88
2023-05-23T02:17:56.601Z,101440.63
2023-05-23T02:18:59.546Z,101438.35
2023-05-23T02:20:02.358Z,101436.03
2023-05-23T02:21:05.822Z,101436.24
2023-05-23T02:22:08.575Z,101436.70
2023-05-23T02:23:11.301Z,101436.52
2023-05-23T02:24:14.204Z,101433.10
2023-05-23T02:25:16.987Z,101433.71
2023-05-23T02:26:19.704Z,101434.09
2023-05-23T02:27:22.568Z,101433.39
2023-05-23T02:28:25.315Z,101431.44
2023-05-23T02:29:28.090Z,101432.93
2023-05-23T02:30:30.964Z,101433.48
2023-05-23T02:31:34.452Z,101432.16
2023-05-23T02:32:37.835Z,101429.63
2023-05-23T02:33:41.010Z,101430.20
2023-05-23T02:34:46.683Z,101431.29
2023-05-23T02:35:51.529Z,101429.64
2023-05-23T02:36:54.540Z,101432.95
2023-05-23T02:37:57.527Z,101427.52
2023-05-23T02:39:00.446Z,101426.95
2023-05-23T02:40:03.466Z,101427.08
2023-05-23T02:41:06.292Z,101429.05
2023-05-23T02:42:09.681Z,101425.16
2023-05-23T02:43:13.107Z,101430.09
2023-05-23T02:44:15.910Z,101433.92
2023-05-23T02:45:18.665Z,101432.61
2023-05-23T02:46:23.003Z,101432.85
2023-05-23T02:47:26.030Z,101431.73
2023-05-23T02:48:28.822Z,101428.41
2023-05-23T02:49:31.759Z,101427.88
2023-05-23T02:50:34.462Z,101426.70
2023-05-23T02:51:37.246Z,101424.39
2023-05-23T02:52:40.053Z,101421.81
2023-05-23T02:53:42.738Z,101420.86
2023-05-23T02:54:45.712Z,101413.67
2023-05-23T02:55:48.742Z,101419.50
2023-05-23T02:56:52.441Z,101422.23
2023-05-23T02:57:55.199Z,101419.58
2023-05-23T02:58:57.962Z,101420.33
2023-05-23T03:00:00.695Z,101423.80
2023-05-23T03:01:04.940Z,101421.66
2023-05-23T03:02:09.224Z,101424.41
2023-05-23T03:03:12.742Z,101427.11
2023-05-23T03:04:16.282Z,101430.55
2023-05-23T03:05:19.040Z,101428.59
2023-05-23T03:06:22.562Z,101422.82
2023-05-23T03:07:28.575Z,101416.20
2023-05-23T03:08:32.078Z,101410.02
2023-05-23T03:09:35.412Z,101407.11
2023-05-23T03:10:38.147Z,101412.86
2023-05-23T03:11:40.992Z,101412.95
2023-05-23T03:12:43.931Z,101410.37
2023-05-23T03:13:46.709Z,101411.73
2023-05-23T03:14:49.446Z,101413.94
2023-05-23T03:15:52.215Z,101413.30
2023-05-23T03:16:55.148Z,101414.95
2023-05-23T03:17:57.936Z,101415.88
2023-05-23T03:19:00.867Z,101414.96
2023-05-23T03:20:04.936Z,101415.91
2023-05-23T03:21:08.187Z,101414.35
2023-05-23T03:22:10.869Z,101404.25
2023-05-23T03:23:13.642Z,101404.55
2023-05-23T03:24:16.576Z,101405.98
2023-05-23T03:25:19.741Z,101405.11
2023-05-23T03:26:24.016Z,101404.46
2023-05-23T03:27:26.944Z,101405.77
2023-05-23T03:28:32.679Z,101407.99
2023-05-23T03:29:35.631Z,101404.41
2023-05-23T03:30:38.666Z,101404.08
2023-05-23T03:31:41.384Z,101402.45
2023-05-23T03:32:44.245Z,101403.20
2023-05-23T03:33:46.994Z,101403.04
2023-05-23T03:34:49.747Z,101400.69
2023-05-23T03:35:53.173Z,101399.27
2023-05-23T03:36:56.064Z,101399.89
2023-05-23T03:37:58.858Z,101399.87
2023-05-23T03:39:01.702Z,101401.80
2023-05-23T03:40:04.990Z,101397.41
2023-05-23T03:41:07.756Z,101399.81
2023-05-23T03:42:11.041Z,101397.21
2023-05-23T03:43:13.822Z,101400.76
2023-05-23T03:44:17.540Z,101396.81
2023-05-23T03:45:20.558Z,101395.17
2023-05-23T03:46:23.537Z,101392.49
2023-05-23T03:47:26.939Z,101392.02
2023-05-23T03:48:30.989Z,101390.27
2023-05-23T03:49:33.726Z,101388.92
2023-05-23T03:50:36.974Z,101388.72
2023-05-23T03:51:39.798Z,101383.91
2023-05-23T03:52:42.675Z,101383.85
2023-05-23T03:53:46.388Z,101379.52
2023-05-23T03:54:50.974Z,101375.90
2023-05-23T03:55:54.116Z,101372.52
2023-05-23T03:56:57.470Z,101372.20
2023-05-23T03:58:00.403Z,101372.10
2023-05-23T03:59:03.197Z,101370.32
2023-05-23T04:00:12.224Z,101367.11
2023-05-23T04:01:19.616Z,101367.95
2023-05-23T04:02:23.468Z,101365.91
2023-05-23T04:03:28.483Z,101365.77
2023-05-23T04:04:32.199Z,101367.13
2023-05-23T04:05:35.351Z,101365.56
2023-05-23T04:06:38.385Z,101368.30
2023-05-23T04:07:42.019Z,101370.41
2023-05-23T04:08:45.326Z,101367.76
2023-05-23T04:09:48.180Z,101368.66
2023-05-23T04:10:51.078Z,101366.46
2023-05-23T04:11:54.221Z,101364.30
2023-05-23T04:12:57.504Z,101364.42
2023-05-23T04:14:02.135Z,101366.81
2023-05-23T04:15:05.325Z,101366.58
2023-05-23T04:16:09.912Z,101368.83
2023-05-23T04:17:12.820Z,101366.25
2023-05-23T04:18:17.535Z,101362.83
2023-05-23T04:19:20.781Z,101352.66
2023-05-23T04:20:23.676Z,101354.50
2023-05-23T04:21:26.652Z,101350.86
2023-05-23T04:22:40.302Z,101350.14
2023-05-23T04:23:43.681Z,101350.70
2023-05-23T04:24:46.910Z,101350.11
2023-05-23T04:25:51.472Z,101352.00
2023-05-23T04:27:00.849Z,101349.33
2023-05-23T04:28:03.672Z,101356.95
2023-05-23T04:29:06.616Z,101352.55
2023-05-23T04:30:10.409Z,101350.83
2023-05-23T04:31:17.190Z,101350.67
2023-05-23T04:32:23.094Z,101350.35
2023-05-23T04:33:26.491Z,101349.95
2023-05-23T04:34:30.639Z,101354.62
2023-05-23T04:35:34.401Z,101355.66
2023-05-23T04:36:38.333Z,101354.80
2023-05-23T04:37:42.570Z,101356.91
2023-05-23T04:38:45.760Z,101357.30
2023-05-23T04:39:49.402Z,101356.33
2023-05-23T04:41:07.798Z,101354.25
2023-05-23T04:42:25.085Z,101350.66
2023-05-23T04:43:46.177Z,101349.67
2023-05-23T04:44:58.415Z,101348.59
2023-05-23T04:46:30.172Z,101347.45
2023-05-23T04:47:54.904Z,101349.23
2023-05-23T04:49:18.334Z,101348.98
2023-05-23T04:50:22.942Z,101350.30
2023-05-23T04:51:26.260Z,101345.36
2023-05-23T04:52:33.982Z,101346.74
2023-05-23T04:53:37.719Z,101344.52
2023-05-23T04:54:44.977Z,101344.39
2023-05-23T04:55:48.423Z,101350.48
2023-05-23T04:56:53.620Z,101350.40
2023-05-23T04:57:57.293Z,101351.92
2023-05-23T04:59:00.597Z,101351.33
2023-05-23T05:00:14.878Z,101349.67
2023-05-23T05:01:17.827Z,101350.95
2023-05-23T05:02:20.638Z,101346.72
2023-05-23T05:03:25.119Z,101348.23
2023-05-23T05:04:27.993Z,101344.36
2023-05-23T05:05:31.144Z,101345.27
2023-05-23T05:06:33.940Z,101345.14
2023-05-23T05:07:37.113Z,101342.77
2023-05-23T05:08:41.089Z,101343.30
2023-05-23T05:09:44.367Z,101345.09
2023-05-23T05:10:47.781Z,101344.46
2023-05-23T05:11:51.847Z,101339.50
2023-05-23T05:12:55.812Z,101341.70
2023-05-23T05:13:58.885Z,101340.73
2023-05-23T05:15:02.848Z,101337.46
2023-05-23T05:16:05.856Z,101337.88
2023-05-23T05:17:08.752Z,101335.48
2023-05-23T05:18:36.791Z,101335.35
2023-05-23T05:19:39.654Z,101330.98
2023-05-23T05:20:42.755Z,101331.48
2023-05-23T05:21:45.580Z,101332.11
2023-05-23T05:22:55.545Z,101332.92
2023-05-23T05:24:00.062Z,101332.14
2023-05-23T05:25:03.855Z,101333.13
2023-05-23T05:26:06.589Z,101335.23
2023-05-23T05:27:11.754Z,101332.44
2023-05-23T05:28:14.690Z,101332.60
2023-05-23T05:29:20.617Z,101334.43
2023-05-23T05:30:23.445Z,101334.09
2023-05-23T05:31:30.376Z,101334.56
2023-05-23T05:32:33.984Z,101329.09
2023-05-23T05:33:38.045Z,101330.89
2023-05-23T05:34:49.106Z,101328.36
2023-05-23T05:35:53.060Z,101328.14
2023-05-23T05:36:56.985Z,101329.27
2023-05-23T05:38:02.919Z,101326.51
2023-05-23T05:39:06.958Z,101326.16
2023-05-23T05:40:10.133Z,101325.23
2023-05-23T05:41:14.450Z,101324.95
2023-05-23T05:42:22.746Z,101324.73
2023-05-23T05:43:28.361Z,101323.91
2023-05-23T05:44:31.366Z,101321.59
2023-05-23T05:45:34.178Z,101318.95
2023-05-23T05:46:36.968Z,101316.66
2023-05-23T05:47:39.900Z,101315.35
2023-05-23T05:48:42.920Z,101313.42
2023-05-23T05:49:48.179Z,101315.11
2023-05-23T05:50:50.963Z,101314.38
2023-05-23T05:51:53.876Z,101315.77
2023-05-23T05:52:59.125Z,101314.56
2023-05-23T05:54:01.910Z,101314.69
2023-05-23T05:55:06.703Z,101315.06
2023-05-23T05:56:09.565Z,101315.84
2023-05-23T05:57:13.957Z,101319.75
2023-05-23T05:58:16.922Z,101316.11
2023-05-23T05:59:31.061Z,101313.98
2023-05-23T06:00:42.297Z,101314.52
2023-05-23T06:01:45.519Z,101315.54
2023-05-23T06:02:51.543Z,101313.73
2023-05-23T06:04:15.254Z,101314.60
2023-05-23T06:05:18.618Z,101314.52
2023-05-23T06:06:22.552Z,101316.63
2023-05-23T06:07:25.538Z,101318.30
2023-05-23T06:08:28.316Z,101313.98
2023-05-23T06:09:31.092Z,101315.04
2023-05-23T06:10:34.029Z,101311.59
2023-05-23T06:11:41.336Z,101313.73
2023-05-23T06:12:45.727Z,101315.24
2023-05-23T06:13:49.297Z,101314.41
2023-05-23T06:14:52.065Z,101307.36
2023-05-23T06:15:55.005Z,101307.50
2023-05-23T06:16:58.043Z,101308.42
2023-05-23T06:18:01.057Z,101308.27
2023-05-23T06:19:05.794Z,101307.23
2023-05-23T06:20:08.890Z,101303.39
2023-05-23T06:21:12.561Z,101304.45
2023-05-23T06:22:15.398Z,101300.56
2023-05-23T06:23:18.350Z,101304.44
2023-05-23T06:24:21.841Z,101299.46
2023-05-23T06:25:24.515Z,101300.64
2023-05-23T06:26:27.711Z,101298.16
2023-05-23T06:27:30.453Z,101300.36
2023-05-23T06:28:33.184Z,101300.12
2023-05-23T06:29:36.950Z,101300.09
2023-05-23T06:30:39.852Z,101297.30
2023-05-23T06:31:44.368Z,101298.58
2023-05-23T06:32:47.158Z,101298.37
2023-05-23T06:33:51.183Z,101296.34
2023-05-23T06:34:53.955Z,101296.77
2023-05-23T06:35:56.650Z,101299.27
2023-05-23T06:36:59.371Z,101296.73
2023-05-23T06:38:02.094Z,101297.40
2023-05-23T06:39:05.132Z,101296.45
2023-05-23T06:40:09.698Z,101295.89
2023-05-23T06:41:12.445Z,101291.84
2023-05-23T06:42:15.687Z,101294.31
2023-05-23T06:43:37.156Z,101293.54
2023-05-23T06:44:50.703Z,101289.05
2023-05-23T06:45:54.421Z,101290.92
2023-05-23T06:46:58.933Z,101290.14
2023-05-23T06:48:02.015Z,101292.23
2023-05-23T06:49:14.245Z,101290.41
2023-05-23T06:50:21.413Z,101290.59
2023-05-23T06:51:24.700Z,101290.44
2023-05-23T06:52:27.612Z,101290.77
2023-05-23T06:53:30.842Z,101293.36
2023-05-23T06:54:33.786Z,101294.15
2023-05-23T06:55:36.605Z,101291.17
2023-05-23T06:56:40.197Z,101293.16
2023-05-23T06:57:43.220Z,101289.59
2023-05-23T06:58:47.174Z,101291.46
2023-05-23T06:59:50.407Z,101289.30
2023-05-23T07:00:53.236Z,101286.48
2023-05-23T07:01:59.870Z,101286.44
2023-05-23T07:03:03.867Z,101285.21
2023-05-23T07:04:07.116Z,101283.23
2023-05-23T07:05:10.270Z,101281.88
2023-05-23T07:06:22.079Z,101282.27
2023-05-23T07:07:24.891Z,101281.61
2023-05-23T07:08:28.092Z,101278.13
2023-05-23T07:09:38.438Z,101279.55
2023-05-23T07:10:47.935Z,101277.52
2023-05-23T07:11:58.764Z,101274.61
2023-05-23T07:13:01.938Z,101280.45
2023-05-23T07:14:06.110Z,101280.87
2023-05-23T07:15:12.325Z,101279.45
2023-05-23T07:16:21.355Z,101281.34
2023-05-23T07:17:33.681Z,101275.30
2023-05-23T07:18:38.832Z,101278.23
2023-05-23T07:19:41.939Z,101276.68
2023-05-23T07:20:44.719Z,101272.67
2023-05-23T07:21:50.842Z,101273.48
2023-05-23T07:22:54.322Z,101269.95
2023-05-23T07:23:57.089Z,101272.48
2023-05-23T07:24:59.987Z,101267.88
2023-05-23T07:26:05.918Z,101266.85
2023-05-23T07:27:16.066Z,101270.80
2023-05-23T07:28:20.025Z,101268.42
2023-05-23T07:29:23.019Z,101263.27
2023-05-23T07:30:27.534Z,101265.71
2023-05-23T07:31:30.879Z,101263.34
2023-05-23T07:32:34.922Z,101265.46
2023-05-23T07:33:37.903Z,101264.14
2023-05-23T07:34:41.227Z,101264.45
2023-05-23T07:35:46.751Z,101263.84
2023-05-23T07:36:50.413Z,101265.34
2023-05-23T07:37:53.790Z,101264.27
2023-05-23T07:38:56.838Z,101264.97
2023-05-23T07:39:59.723Z,101263.69
2023-05-23T07:41:10.723Z,101259.55
2023-05-23T07:42:14.855Z,101266.58
2023-05-23T07:43:17.940Z,101262.78
2023-05-23T07:44:23.957Z,101263.27
2023-05-23T07:45:28.030Z,101259.52
2023-05-23T07:46:31.271Z,101263.77
2023-05-23T07:47:34.143Z,101256.52
2023-05-23T07:48:36.970Z,101254.19
2023-05-23T07:49:39.936Z,101251.10
2023-05-23T07:50:42.801Z,101253.04
2023-05-23T07:51:46.080Z,101254.52
2023-05-23T07:52:51.362Z,101255.83
2023-05-23T07:53:57.485Z,101254.27
2023-05-23T07:55:00.823Z,101249.55
2023-05-23T07:56:04.209Z,101251.04
2023-05-23T07:57:11.956Z,101253.73
2023-05-23T07:58:14.821Z,101249.59
2023-05-23T07:59:17.715Z,101247.83
2023-05-23T08:00:21.953Z,101246.52
2023-05-23T08:01:26.327Z,101247.41
2023-05-23T08:02:39.849Z,101250.38
2023-05-23T08:03:42.744Z,101251.84
2023-05-23T08:04:50.165Z,101254.02
2023-05-23T08:05:54.300Z,101251.56
2023-05-23T08:08:05.518Z,101257.46
2023-05-23T08:09:10.045Z,101256.45
2023-05-23T08:10:17.486Z,101252.86
2023-05-23T08:11:20.539Z,101248.52
2023-05-23T08:12:26.320Z,101250.11
2023-05-23T08:13:36.288Z,101246.55
2023-05-23T08:14:57.923Z,101246.88
2023-05-23T08:16:14.808Z,101247.80
2023-05-23T08:17:17.933Z,101249.04
2023-05-23T08:18:20.913Z,101248.50
2023-05-23T08:19:24.137Z,101246.54
2023-05-23T08:20:31.145Z,101250.70
2023-05-23T08:21:36.404Z,101251.83
2023-05-23T08:22:39.464Z,101246.14
2023-05-23T08:23:42.302Z,101248.92
2023-05-23T08:24:45.055Z,101250.77
2023-05-23T08:25:47.779Z,101251.13
2023-05-23T08:26:50.524Z,101252.14
2023-05-23T08:27:53.573Z,101255.02
2023-05-23T08:29:11.243Z,101253.85
2023-05-23T08:30:14.352Z,101252.54
2023-05-23T08:31:17.334Z,101248.88
2023-05-23T08:32:20.527Z,101247.13
2023-05-23T08:33:23.296Z,101249.38
2023-05-23T08:34:26.322Z,101247.20
2023-05-23T08:35:33.806Z,101245.96
2023-05-23T08:36:37.007Z,101247.02
2023-05-23T08:37:42.029Z,101244.73
2023-05-23T08:38:47.090Z,101246.02
2023-05-23T08:39:56.315Z,101242.50
2023-05-23T08:41:16.512Z,101248.79
2023-05-23T08:42:19.563Z,101247.67
2023-05-23T08:43:22.634Z,101248.95
2023-05-23T08:44:25.673Z,101249.49
2023-05-23T08:45:34.836Z,101248.38
2023-05-23T08:46:41.325Z,101251.09
2023-05-23T08:47:45.282Z,101246.69
2023-05-23T08:48:51.546Z,101243.04
2023-05-23T08:49:55.666Z,101247.53
2023-05-23T08:50:59.632Z,101248.05
2023-05-23T08:52:06.119Z,101248.52
2023-05-23T08:53:12.352Z,101247.85
2023-05-23T08:54:15.381Z,101247.95
2023-05-23T08:55:18.858Z,101250.25
2023-05-23T08:56:24.504Z,101246.35
2023-05-23T08:57:27.770Z,101250.42
2023-05-23T08:58:35.503Z,101249.59
2023-05-23T08:59:38.943Z,101248.84
2023-05-23T09:00:42.889Z,101248.72
2023-05-23T09:01:47.584Z,101249.93
2023-05-23T09:02:51.799Z,101251.90
2023-05-23T09:04:14.801Z,101253.02
2023-05-23T09:05:26.510Z,101249.92
2023-05-23T09:06:29.344Z,101250.48
2023-05-23T09:07:32.190Z,101251.15
2023-05-23T09:08:35.559Z,101249.89
2023-05-23T09:09:38.993Z,101252.31
2023-05-23T09:10:43.127Z,101253.15
2023-05-23T09:11:47.139Z,101247.95
2023-05-23T09:12:50.202Z,101250.81
2023-05-23T09:13:53.810Z,101249.41
2023-05-23T09:14:57.928Z,101248.05
2023-05-23T09:16:04.124Z,101247.52
2023-05-23T09:17:11.206Z,101248.13
2023-05-23T09:18:14.614Z,101248.49
2023-05-23T09:19:18.499Z,101251.93
2023-05-23T09:20:28.731Z,101252.52
2023-05-23T09:21:34.497Z,101255.20
2023-05-23T09:22:46.028Z,101251.37
2023-05-23T09:23:50.313Z,101249.17
2023-05-23T09:24:54.249Z,101251.63
2023-05-23T09:25:57.013Z,101250.29
2023-05-23T09:26:59.749Z,101242.33
2023-05-23T09:28:04.657Z,101242.75
2023-05-23T09:29:08.646Z,101244.88
2023-05-23T09:30:11.985Z,101240.09
2023-05-23T09:31:16.360Z,101243.23
2023-05-23T09:33:28.809Z,101236.38
2023-05-23T09:34:31.596Z,101238.06
2023-05-23T09:35:34.379Z,101238.20
2023-05-23T09:36:41.165Z,101232.86
2023-05-23T09:37:49.146Z,101234.26
2023-05-23T09:38:54.738Z,101235.74
2023-05-23T09:39:59.163Z,101235.20
2023-05-23T09:41:01.998Z,101239.11
2023-05-23T09:42:04.790Z,101234.72
2023-05-23T09:43:07.815Z,101236.08
2023-05-23T09:44:10.882Z,101234.89
2023-05-23T09:45:14.427Z,101230.59
2023-05-23T09:46:17.510Z,101231.42
2023-05-23T09:47:20.625Z,101233.63
2023-05-23T09:48:33.548Z,101233.86
2023-05-23T09:49:38.952Z,101231.59
2023-05-23T09:50:42.053Z,101232.90
2023-05-23T09:51:57.309Z,101232.84
2023-05-23T09:53:01.370Z,101234.29
2023-05-23T09:54:04.173Z,101237.56
2023-05-23T09:55:07.152Z,101231.73
2023-05-23T09:56:11.683Z,101235.40
2023-05-23T09:57:15.185Z,101233.45
2023-05-23T09:58:19.779Z,101234.64
2023-05-23T09:59:24.351Z,101235.34
2023-05-23T10:00:28.717Z,101237.08
2023-05-23T10:01:32.240Z,101236.66
2023-05-23T10:02:54.154Z,101231.83
2023-05-23T10:04:00.248Z,101233.60
2023-05-23T10:05:05.192Z,101231.56
2023-05-23T10:06:08.747Z,101236.00
2023-05-23T10:07:15.873Z,101236.83
2023-05-23T10:08:27.109Z,101235.95
2023-05-23T10:09:33.191Z,101231.80
2023-05-23T10:10:50.991Z,101228.02
2023-05-23T10:12:11.833Z,101230.48
2023-05-23T10:13:14.669Z,101226.95
2023-05-23T10:14:17.944Z,101224.45
2023-05-23T10:15:21.688Z,101224.67
2023-05-23T10:16:32.039Z,101228.21
2023-05-23T10:17:47.259Z,101227.11
2023-05-23T10:18:55.711Z,101227.20
2023-05-23T10:20:00.929Z,101223.31
2023-05-23T10:21:07.134Z,101221.13
2023-05-23T10:22:11.363Z,101221.40
2023-05-23T10:23:14.302Z,101227.45
2023-05-23T10:24:17.500Z,101223.34
2023-05-23T10:25:20.376Z,101225.05
2023-05-23T10:26:23.513Z,101226.95
2023-05-23T10:27:27.708Z,101223.77
2023-05-23T10:28:30.741Z,101224.14
2023-05-23T10:29:36.604Z,101222.19
2023-05-23T10:30:40.264Z,101220.52
2023-05-23T10:31:44.102Z,101223.25
2023-05-23T10:32:47.425Z,101226.17
2023-05-23T10:33:58.395Z,101220.41
2023-05-23T10:35:20.089Z,101218.58
2023-05-23T10:36:28.329Z,101219.13
2023-05-23T10:37:45.228Z,101219.98
2023-05-23T10:38:51.645Z,101216.33
2023-05-23T10:40:17.427Z,101215.48
2023-05-23T10:41:22.707Z,101219.59
2023-05-23T10:42:35.420Z,101215.52
2023-05-23T10:43:41.454Z,101218.22
2023-05-23T10:44:44.234Z,101215.92
2023-05-23T10:45:50.707Z,101218.52
2023-05-23T10:46:54.824Z,101220.08
2023-05-23T10:48:00.222Z,101218.77
2023-05-23T10:49:03.710Z,101220.03
2023-05-23T10:50:07.239Z,101216.20
2023-05-23T10:51:10.957Z,101219.41
2023-05-23T10:52:16.082Z,101222.23
2023-05-23T10:53:18.902Z,101219.59
2023-05-23T10:54:21.692Z,101223.30
2023-05-23T10:55:24.459Z,101220.41
2023-05-23T10:56:31.661Z,101217.06
2023-05-23T10:57:34.515Z,101214.86
2023-05-23T10:58:39.263Z,101213.15
2023-05-23T10:59:42.522Z,101217.89
2023-05-23T11:00:55.263Z,101216.21
2023-05-23T11:01:58.378Z,101216.16
2023-05-23T11:03:05.037Z,101213.64
2023-05-23T11:04:08.018Z,101213.95
2023-05-23T11:05:23.164Z,101213.91
2023-05-23T11:06:30.223Z,101215.29
2023-05-23T11:07:33.260Z,101214.39
2023-05-23T11:08:46.816Z,101217.90
2023-05-23T11:10:11.163Z,101212.80
2023-05-23T11:11:13.932Z,101211.45
2023-05-23T11:12:36.260Z,101212.67
2023-05-23T11:13:55.352Z,101214.33
2023-05-23T11:14:58.206Z,101214.37
2023-05-23T11:16:00.965Z,101218.31
2023-05-23T11:17:17.012Z,101213.05
2023-05-23T11:18:21.210Z,101210.03
2023-05-23T11:19:26.384Z,101210.25
2023-05-23T11:20:30.716Z,101204.08
2023-05-23T11:21:33.981Z,101202.83
2023-05-23T11:22:36.934Z,101208.54
2023-05-23T11:23:41.912Z,101208.92
2023-05-23T11:24:47.711Z,101209.63
2023-05-23T11:25:52.009Z,101206.23
2023-05-23T11:27:00.332Z,101208.32
2023-05-23T11:28:07.245Z,101210.63
2023-05-23T11:29:10.025Z,101212.45
2023-05-23T11:30:14.548Z,101206.72
2023-05-23T11:31:18.018Z,101207.15
2023-05-23T11:32:21.011Z,101205.56
2023-05-23T11:33:23.864Z,101202.80
2023-05-23T11:34:26.726Z,101200.06
2023-05-23T11:35:30.867Z,101194.77
2023-05-23T11:36:36.414Z,101198.06
2023-05-23T11:37:40.050Z,101199.98
2023-05-23T11:38:42.980Z,101194.92
2023-05-23T11:39:45.670Z,101195.81
2023-05-23T11:40:48.580Z,101201.18
2023-05-23T11:42:01.098Z,101197.89
2023-05-23T11:43:05.308Z,101197.66
2023-05-23T11:44:11.954Z,101200.70
2023-05-23T11:45:14.701Z,101201.17
2023-05-23T11:46:18.540Z,101202.59
2023-05-23T11:47:21.559Z,101205.68
2023-05-23T11:48:24.445Z,101200.73
2023-05-23T11:49:35.582Z,101204.64
2023-05-23T11:50:46.007Z,101205.23
2023-05-23T11:51:48.792Z,101199.61
2023-05-23T11:52:52.138Z,101199.25
2023-05-23T11:53:54.973Z,101194.39
2023-05-23T11:55:03.655Z,101200.08
2023-05-23T11:56:07.211Z,101200.69
2023-05-23T11:57:10.798Z,101202.80
2023-05-23T11:58:13.598Z,101199.13
2023-05-23T11:59:16.675Z,101203.59
2023-05-23T12:00:19.796Z,101199.67
2023-05-23T12:01:28.882Z,101202.92
2023-05-23T12:02:32.719Z,101205.20
2023-05-23T12:03:44.869Z,101210.91
2023-05-23T12:04:49.499Z,101211.34
2023-05-23T12:05:52.813Z,101207.32
2023-05-23T12:06:56.321Z,101206.33
2023-05-23T12:07:59.822Z,101212.11
2023-05-23T12:09:02.898Z,101200.54
2023-05-23T12:10:06.071Z,101203.89
2023-05-23T12:11:08.866Z,101202.67
2023-05-23T12:12:12.344Z,101203.75
2023-05-23T12:13:15.383Z,101203.50
2023-05-23T12:14:18.251Z,101198.70
2023-05-23T12:15:25.378Z,101194.13
2023-05-23T12:16:29.752Z,101196.85
2023-05-23T12:17:33.312Z,101193.63
2023-05-23T12:18:37.676Z,101194.45
2023-05-23T12:19:40.769Z,101191.46
2023-05-23T12:20:43.812Z,101190.03
2023-05-23T12:21:47.626Z,101193.16
2023-05-23T12:22:50.333Z,101185.14
2023-05-23T12:23:53.172Z,101189.10
2023-05-23T12:24:56.556Z,101185.30
2023-05-23T12:25:59.326Z,101183.98
2023-05-23T12:27:03.056Z,101182.61
2023-05-23T12:28:06.079Z,101184.71
2023-05-23T12:29:08.837Z,101178.20